sensor_id;sensor_type;location;lat;lon;timestamp;P1;durP1;ratioP1;P2;durP2;ratioP2
60730;SDS011;46580;52.114;11.674;2023-04-24T00:00:30;3.87;;;2.77;;
60730;SDS011;46580;52.114;11.674;2023-04-24T00:02:56;3.73;;;3.13;;
60730;SDS011;46580;52.114;11.674;2023-04-24T00:05:23;6.27;;;3.20;;
60730;SDS011;46580;52.114;11.674;2023-04-24T00:07:49;4.73;;;3.30;;
60730;SDS011;46580;52.114;11.674;2023-04-24T00:10:17;5.60;;;3.13;;
60730;SDS011;46580;52.114;11.674;2023-04-24T00:12:43;4.70;;;3.20;;
60730;SDS011;46580;52.114;11.674;2023-04-24T00:15:08;4.97;;;3.00;;
60730;SDS011;46580;52.114;11.674;2023-04-24T00:17:34;4.50;;;4.10;;
60730;SDS011;46580;52.114;11.674;2023-04-24T00:20:00;4.23;;;2.40;;
60730;SDS011;46580;52.114;11.674;2023-04-24T00:22:29;4.20;;;2.53;;
60730;SDS011;46580;52.114;11.674;2023-04-24T00:24:55;3.37;;;2.37;;
60730;SDS011;46580;52.114;11.674;2023-04-24T00:27:21;4.17;;;2.70;;
60730;SDS011;46580;52.114;11.674;2023-04-24T00:29:46;3.77;;;3.00;;
60730;SDS011;46580;52.114;11.674;2023-04-24T00:32:12;3.30;;;2.80;;
60730;SDS011;46580;52.114;11.674;2023-04-24T00:34:38;2.40;;;1.87;;
60730;SDS011;46580;52.114;11.674;2023-04-24T00:37:03;1.47;;;1.30;;
60730;SDS011;46580;52.114;11.674;2023-04-24T00:39:28;1.97;;;1.43;;
60730;SDS011;46580;52.114;11.674;2023-04-24T00:41:54;3.37;;;1.90;;
60730;SDS011;46580;52.114;11.674;2023-04-24T00:44:20;3.17;;;1.77;;
60730;SDS011;46580;52.114;11.674;2023-04-24T00:46:46;1.70;;;1.07;;
60730;SDS011;46580;52.114;11.674;2023-04-24T00:49:12;1.97;;;1.13;;
60730;SDS011;46580;52.114;11.674;2023-04-24T00:51:38;1.50;;;0.90;;
60730;SDS011;46580;52.114;11.674;2023-04-24T00:54:05;1.10;;;0.90;;
60730;SDS011;46580;52.114;11.674;2023-04-24T00:56:30;1.47;;;1.10;;
60730;SDS011;46580;52.114;11.674;2023-04-24T00:58:56;1.73;;;1.43;;
60730;SDS011;46580;52.114;11.674;2023-04-24T01:01:21;4.27;;;2.40;;
60730;SDS011;46580;52.114;11.674;2023-04-24T01:03:48;3.67;;;2.30;;
60730;SDS011;46580;52.114;11.674;2023-04-24T01:06:15;3.63;;;2.13;;
60730;SDS011;46580;52.114;11.674;2023-04-24T01:08:41;3.03;;;2.20;;
60730;SDS011;46580;52.114;11.674;2023-04-24T01:11:07;2.40;;;1.67;;
60730;SDS011;46580;52.114;11.674;2023-04-24T01:13:33;2.47;;;1.17;;
60730;SDS011;46580;52.114;11.674;2023-04-24T01:15:59;0.73;;;0.73;;
60730;SDS011;46580;52.114;11.674;2023-04-24T01:18:25;1.53;;;0.63;;
60730;SDS011;46580;52.114;11.674;2023-04-24T01:20:52;1.07;;;0.83;;
60730;SDS011;46580;52.114;11.674;2023-04-24T01:23:19;0.90;;;0.63;;
60730;SDS011;46580;52.114;11.674;2023-04-24T01:25:44;1.30;;;0.70;;
60730;SDS011;46580;52.114;11.674;2023-04-24T01:28:10;1.97;;;0.87;;
60730;SDS011;46580;52.114;11.674;2023-04-24T01:30:36;0.70;;;0.70;;
60730;SDS011;46580;52.114;11.674;2023-04-24T01:33:01;0.77;;;0.67;;
60730;SDS011;46580;52.114;11.674;2023-04-24T01:35:27;3.40;;;1.17;;
60730;SDS011;46580;52.114;11.674;2023-04-24T01:37:52;2.43;;;0.80;;
60730;SDS011;46580;52.114;11.674;2023-04-24T01:40:18;1.20;;;0.93;;
60730;SDS011;46580;52.114;11.674;2023-04-24T01:42:43;1.30;;;0.60;;
60730;SDS011;46580;52.114;11.674;2023-04-24T01:45:10;1.97;;;0.80;;
60730;SDS011;46580;52.114;11.674;2023-04-24T01:47:36;1.97;;;0.90;;
60730;SDS011;46580;52.114;11.674;2023-04-24T01:50:02;2.50;;;0.70;;
60730;SDS011;46580;52.114;11.674;2023-04-24T01:52:28;1.90;;;0.80;;
60730;SDS011;46580;52.114;11.674;2023-04-24T01:54:56;0.70;;;0.63;;
60730;SDS011;46580;52.114;11.674;2023-04-24T01:57:21;1.63;;;0.90;;
60730;SDS011;46580;52.114;11.674;2023-04-24T01:59:47;3.33;;;1.00;;
60730;SDS011;46580;52.114;11.674;2023-04-24T02:02:12;2.63;;;0.80;;
60730;SDS011;46580;52.114;11.674;2023-04-24T02:04:37;1.10;;;0.80;;
60730;SDS011;46580;52.114;11.674;2023-04-24T02:07:04;1.23;;;0.93;;
60730;SDS011;46580;52.114;11.674;2023-04-24T02:09:30;2.63;;;0.80;;
60730;SDS011;46580;52.114;11.674;2023-04-24T02:11:55;2.30;;;0.80;;
60730;SDS011;46580;52.114;11.674;2023-04-24T02:14:21;1.00;;;0.90;;
60730;SDS011;46580;52.114;11.674;2023-04-24T02:16:46;2.13;;;0.80;;
60730;SDS011;46580;52.114;11.674;2023-04-24T02:19:12;0.97;;;0.67;;
60730;SDS011;46580;52.114;11.674;2023-04-24T02:21:37;1.30;;;0.90;;
60730;SDS011;46580;52.114;11.674;2023-04-24T02:24:02;1.57;;;0.93;;
60730;SDS011;46580;52.114;11.674;2023-04-24T02:26:28;1.53;;;1.20;;
60730;SDS011;46580;52.114;11.674;2023-04-24T02:28:53;3.67;;;1.73;;
60730;SDS011;46580;52.114;11.674;2023-04-24T02:31:18;4.27;;;3.20;;
60730;SDS011;46580;52.114;11.674;2023-04-24T02:33:44;4.90;;;3.87;;
60730;SDS011;46580;52.114;11.674;2023-04-24T02:36:09;7.53;;;3.47;;
60730;SDS011;46580;52.114;11.674;2023-04-24T02:38:35;4.43;;;2.80;;
60730;SDS011;46580;52.114;11.674;2023-04-24T02:41:00;3.97;;;3.10;;
60730;SDS011;46580;52.114;11.674;2023-04-24T02:43:27;2.60;;;2.20;;
60730;SDS011;46580;52.114;11.674;2023-04-24T02:45:52;3.60;;;1.93;;
60730;SDS011;46580;52.114;11.674;2023-04-24T02:48:17;1.57;;;1.17;;
60730;SDS011;46580;52.114;11.674;2023-04-24T02:50:43;1.50;;;1.00;;
60730;SDS011;46580;52.114;11.674;2023-04-24T02:53:11;0.90;;;0.83;;
60730;SDS011;46580;52.114;11.674;2023-04-24T02:55:36;1.47;;;1.00;;
60730;SDS011;46580;52.114;11.674;2023-04-24T02:58:02;1.33;;;0.97;;
60730;SDS011;46580;52.114;11.674;2023-04-24T03:00:27;1.67;;;1.00;;
60730;SDS011;46580;52.114;11.674;2023-04-24T03:02:52;1.97;;;1.17;;
60730;SDS011;46580;52.114;11.674;2023-04-24T03:05:18;3.00;;;1.30;;
60730;SDS011;46580;52.114;11.674;2023-04-24T03:07:43;2.93;;;1.20;;
60730;SDS011;46580;52.114;11.674;2023-04-24T03:10:08;1.37;;;1.20;;
60730;SDS011;46580;52.114;11.674;2023-04-24T03:12:34;1.17;;;1.00;;
60730;SDS011;46580;52.114;11.674;2023-04-24T03:14:59;1.90;;;1.43;;
60730;SDS011;46580;52.114;11.674;2023-04-24T03:17:25;1.67;;;1.30;;
60730;SDS011;46580;52.114;11.674;2023-04-24T03:19:50;2.57;;;1.30;;
60730;SDS011;46580;52.114;11.674;2023-04-24T03:22:16;0.90;;;0.90;;
60730;SDS011;46580;52.114;11.674;2023-04-24T03:24:41;1.73;;;1.10;;
60730;SDS011;46580;52.114;11.674;2023-04-24T03:27:06;0.90;;;0.80;;
60730;SDS011;46580;52.114;11.674;2023-04-24T03:29:32;1.07;;;0.90;;
60730;SDS011;46580;52.114;11.674;2023-04-24T03:31:57;3.63;;;1.10;;
60730;SDS011;46580;52.114;11.674;2023-04-24T03:34:22;3.07;;;1.20;;
60730;SDS011;46580;52.114;11.674;2023-04-24T03:36:48;2.57;;;1.27;;
60730;SDS011;46580;52.114;11.674;2023-04-24T03:39:13;1.37;;;1.27;;
60730;SDS011;46580;52.114;11.674;2023-04-24T03:41:38;1.73;;;1.23;;
60730;SDS011;46580;52.114;11.674;2023-04-24T03:44:04;1.70;;;1.20;;
60730;SDS011;46580;52.114;11.674;2023-04-24T03:46:29;2.20;;;1.20;;
60730;SDS011;46580;52.114;11.674;2023-04-24T03:48:54;2.90;;;1.10;;
60730;SDS011;46580;52.114;11.674;2023-04-24T03:51:20;1.30;;;0.93;;
60730;SDS011;46580;52.114;11.674;2023-04-24T03:53:45;1.53;;;1.20;;
60730;SDS011;46580;52.114;11.674;2023-04-24T03:56:11;1.13;;;0.93;;
60730;SDS011;46580;52.114;11.674;2023-04-24T03:58:36;2.73;;;1.33;;
60730;SDS011;46580;52.114;11.674;2023-04-24T04:01:01;1.63;;;1.17;;
60730;SDS011;46580;52.114;11.674;2023-04-24T04:03:27;1.80;;;1.00;;
60730;SDS011;46580;52.114;11.674;2023-04-24T04:05:53;2.87;;;1.27;;
60730;SDS011;46580;52.114;11.674;2023-04-24T04:08:19;3.13;;;1.37;;
60730;SDS011;46580;52.114;11.674;2023-04-24T04:10:44;1.63;;;1.20;;
60730;SDS011;46580;52.114;11.674;2023-04-24T04:13:09;2.37;;;1.43;;
60730;SDS011;46580;52.114;11.674;2023-04-24T04:15:35;2.30;;;1.40;;
60730;SDS011;46580;52.114;11.674;2023-04-24T04:18:00;2.57;;;1.40;;
60730;SDS011;46580;52.114;11.674;2023-04-24T04:20:26;1.60;;;1.30;;
60730;SDS011;46580;52.114;11.674;2023-04-24T04:22:51;2.57;;;1.23;;
60730;SDS011;46580;52.114;11.674;2023-04-24T04:25:16;6.20;;;2.10;;
60730;SDS011;46580;52.114;11.674;2023-04-24T04:27:44;2.40;;;2.00;;
60730;SDS011;46580;52.114;11.674;2023-04-24T04:30:10;2.90;;;1.47;;
60730;SDS011;46580;52.114;11.674;2023-04-24T04:32:36;4.20;;;2.03;;
60730;SDS011;46580;52.114;11.674;2023-04-24T04:35:02;2.63;;;1.73;;
60730;SDS011;46580;52.114;11.674;2023-04-24T04:37:34;1.77;;;1.30;;
60730;SDS011;46580;52.114;11.674;2023-04-24T04:39:59;2.57;;;1.27;;
60730;SDS011;46580;52.114;11.674;2023-04-24T04:42:27;2.93;;;1.27;;
60730;SDS011;46580;52.114;11.674;2023-04-24T04:44:53;1.60;;;1.00;;
60730;SDS011;46580;52.114;11.674;2023-04-24T04:47:20;1.50;;;1.10;;
60730;SDS011;46580;52.114;11.674;2023-04-24T04:49:48;2.77;;;1.20;;
60730;SDS011;46580;52.114;11.674;2023-04-24T04:52:13;2.67;;;1.00;;
60730;SDS011;46580;52.114;11.674;2023-04-24T04:54:38;1.00;;;0.87;;
60730;SDS011;46580;52.114;11.674;2023-04-24T04:57:04;1.40;;;1.07;;
60730;SDS011;46580;52.114;11.674;2023-04-24T04:59:30;5.00;;;1.40;;
60730;SDS011;46580;52.114;11.674;2023-04-24T05:01:55;1.20;;;0.80;;
60730;SDS011;46580;52.114;11.674;2023-04-24T05:04:21;1.83;;;1.03;;
60730;SDS011;46580;52.114;11.674;2023-04-24T05:06:46;2.40;;;1.27;;
60730;SDS011;46580;52.114;11.674;2023-04-24T05:09:12;2.70;;;1.03;;
60730;SDS011;46580;52.114;11.674;2023-04-24T05:11:37;1.43;;;1.13;;
60730;SDS011;46580;52.114;11.674;2023-04-24T05:14:03;2.00;;;1.30;;
60730;SDS011;46580;52.114;11.674;2023-04-24T05:16:28;1.20;;;1.00;;
60730;SDS011;46580;52.114;11.674;2023-04-24T05:18:54;2.90;;;0.70;;
60730;SDS011;46580;52.114;11.674;2023-04-24T05:21:19;1.23;;;0.70;;
60730;SDS011;46580;52.114;11.674;2023-04-24T05:23:45;0.70;;;0.67;;
60730;SDS011;46580;52.114;11.674;2023-04-24T05:26:10;1.37;;;0.77;;
60730;SDS011;46580;52.114;11.674;2023-04-24T05:28:35;0.90;;;0.57;;
60730;SDS011;46580;52.114;11.674;2023-04-24T05:31:02;1.50;;;0.70;;
60730;SDS011;46580;52.114;11.674;2023-04-24T05:33:27;1.07;;;0.67;;
60730;SDS011;46580;52.114;11.674;2023-04-24T05:35:53;2.90;;;0.93;;
60730;SDS011;46580;52.114;11.674;2023-04-24T05:38:18;2.17;;;0.70;;
60730;SDS011;46580;52.114;11.674;2023-04-24T05:40:47;2.40;;;0.87;;
60730;SDS011;46580;52.114;11.674;2023-04-24T05:43:13;1.13;;;0.90;;
60730;SDS011;46580;52.114;11.674;2023-04-24T05:45:38;1.27;;;1.00;;
60730;SDS011;46580;52.114;11.674;2023-04-24T05:48:04;1.60;;;1.10;;
60730;SDS011;46580;52.114;11.674;2023-04-24T05:50:29;2.23;;;1.10;;
60730;SDS011;46580;52.114;11.674;2023-04-24T05:52:55;3.53;;;1.00;;
60730;SDS011;46580;52.114;11.674;2023-04-24T05:57:51;1.43;;;1.27;;
60730;SDS011;46580;52.114;11.674;2023-04-24T06:00:19;1.70;;;1.03;;
60730;SDS011;46580;52.114;11.674;2023-04-24T06:02:45;1.80;;;1.13;;
60730;SDS011;46580;52.114;11.674;2023-04-24T06:05:12;1.67;;;1.17;;
60730;SDS011;46580;52.114;11.674;2023-04-24T06:07:37;2.50;;;1.40;;
60730;SDS011;46580;52.114;11.674;2023-04-24T06:10:02;1.57;;;1.07;;
60730;SDS011;46580;52.114;11.674;2023-04-24T06:12:28;1.80;;;1.00;;
60730;SDS011;46580;52.114;11.674;2023-04-24T06:14:53;1.23;;;0.97;;
60730;SDS011;46580;52.114;11.674;2023-04-24T06:17:20;1.13;;;0.90;;
60730;SDS011;46580;52.114;11.674;2023-04-24T06:19:46;5.00;;;1.23;;
60730;SDS011;46580;52.114;11.674;2023-04-24T06:22:12;4.00;;;0.90;;
60730;SDS011;46580;52.114;11.674;2023-04-24T06:24:39;2.77;;;0.90;;
60730;SDS011;46580;52.114;11.674;2023-04-24T06:27:05;6.00;;;1.03;;
60730;SDS011;46580;52.114;11.674;2023-04-24T06:29:30;6.93;;;1.07;;
60730;SDS011;46580;52.114;11.674;2023-04-24T06:31:55;2.33;;;0.90;;
60730;SDS011;46580;52.114;11.674;2023-04-24T06:34:21;9.73;;;1.13;;
60730;SDS011;46580;52.114;11.674;2023-04-24T06:36:46;2.43;;;1.00;;
60730;SDS011;46580;52.114;11.674;2023-04-24T06:39:12;8.50;;;1.70;;
60730;SDS011;46580;52.114;11.674;2023-04-24T06:41:37;2.80;;;1.47;;
60730;SDS011;46580;52.114;11.674;2023-04-24T06:44:02;12.63;;;1.73;;
60730;SDS011;46580;52.114;11.674;2023-04-24T06:46:28;1.90;;;1.47;;
60730;SDS011;46580;52.114;11.674;2023-04-24T06:48:53;2.53;;;1.43;;
60730;SDS011;46580;52.114;11.674;2023-04-24T06:51:25;2.13;;;1.30;;
60730;SDS011;46580;52.114;11.674;2023-04-24T06:53:51;2.80;;;1.23;;
60730;SDS011;46580;52.114;11.674;2023-04-24T06:56:17;3.00;;;1.30;;
60730;SDS011;46580;52.114;11.674;2023-04-24T06:58:43;4.93;;;1.70;;
60730;SDS011;46580;52.114;11.674;2023-04-24T07:01:09;3.50;;;1.13;;
60730;SDS011;46580;52.114;11.674;2023-04-24T07:03:35;1.33;;;0.80;;
60730;SDS011;46580;52.114;11.674;2023-04-24T07:06:00;1.97;;;1.20;;
60730;SDS011;46580;52.114;11.674;2023-04-24T07:08:25;2.90;;;1.33;;
60730;SDS011;46580;52.114;11.674;2023-04-24T07:10:51;2.33;;;1.33;;
60730;SDS011;46580;52.114;11.674;2023-04-24T07:13:16;2.30;;;1.20;;
60730;SDS011;46580;52.114;11.674;2023-04-24T07:15:42;2.10;;;1.10;;
60730;SDS011;46580;52.114;11.674;2023-04-24T07:18:08;2.07;;;1.23;;
60730;SDS011;46580;52.114;11.674;2023-04-24T07:20:33;4.27;;;1.40;;
60730;SDS011;46580;52.114;11.674;2023-04-24T07:22:59;1.93;;;1.27;;
60730;SDS011;46580;52.114;11.674;2023-04-24T07:25:25;2.90;;;1.10;;
60730;SDS011;46580;52.114;11.674;2023-04-24T07:27:50;1.27;;;0.83;;
60730;SDS011;46580;52.114;11.674;2023-04-24T07:30:15;1.23;;;0.70;;
60730;SDS011;46580;52.114;11.674;2023-04-24T07:32:41;1.57;;;0.70;;
60730;SDS011;46580;52.114;11.674;2023-04-24T07:35:06;1.43;;;0.80;;
60730;SDS011;46580;52.114;11.674;2023-04-24T07:37:31;0.87;;;0.77;;
60730;SDS011;46580;52.114;11.674;2023-04-24T07:39:57;3.03;;;0.80;;
60730;SDS011;46580;52.114;11.674;2023-04-24T07:42:22;2.40;;;0.80;;
60730;SDS011;46580;52.114;11.674;2023-04-24T07:44:48;0.63;;;0.50;;
60730;SDS011;46580;52.114;11.674;2023-04-24T07:47:13;0.43;;;0.43;;
60730;SDS011;46580;52.114;11.674;2023-04-24T07:49:41;1.60;;;1.00;;
60730;SDS011;46580;52.114;11.674;2023-04-24T07:52:07;1.43;;;0.80;;
60730;SDS011;46580;52.114;11.674;2023-04-24T07:54:33;0.70;;;0.70;;
60730;SDS011;46580;52.114;11.674;2023-04-24T07:56:58;0.70;;;0.63;;
60730;SDS011;46580;52.114;11.674;2023-04-24T07:59:23;3.13;;;1.13;;
60730;SDS011;46580;52.114;11.674;2023-04-24T08:01:49;1.47;;;1.07;;
60730;SDS011;46580;52.114;11.674;2023-04-24T08:04:15;1.00;;;0.83;;
60730;SDS011;46580;52.114;11.674;2023-04-24T08:06:42;1.63;;;1.00;;
60730;SDS011;46580;52.114;11.674;2023-04-24T08:09:08;1.47;;;1.10;;
60730;SDS011;46580;52.114;11.674;2023-04-24T08:11:33;0.60;;;0.60;;
60730;SDS011;46580;52.114;11.674;2023-04-24T08:13:58;3.93;;;0.87;;
60730;SDS011;46580;52.114;11.674;2023-04-24T08:16:24;4.27;;;0.80;;
60730;SDS011;46580;52.114;11.674;2023-04-24T08:18:49;1.10;;;0.60;;
60730;SDS011;46580;52.114;11.674;2023-04-24T08:21:15;1.97;;;0.67;;
60730;SDS011;46580;52.114;11.674;2023-04-24T08:23:43;1.73;;;0.57;;
60730;SDS011;46580;52.114;11.674;2023-04-24T08:26:09;0.60;;;0.50;;
60730;SDS011;46580;52.114;11.674;2023-04-24T08:28:36;1.47;;;0.60;;
60730;SDS011;46580;52.114;11.674;2023-04-24T08:31:01;1.20;;;0.60;;
60730;SDS011;46580;52.114;11.674;2023-04-24T08:33:26;0.43;;;0.30;;
60730;SDS011;46580;52.114;11.674;2023-04-24T08:35:52;1.30;;;0.70;;
60730;SDS011;46580;52.114;11.674;2023-04-24T08:38:17;1.73;;;0.60;;
60730;SDS011;46580;52.114;11.674;2023-04-24T08:40:43;3.27;;;0.50;;
60730;SDS011;46580;52.114;11.674;2023-04-24T08:43:10;0.57;;;0.43;;
60730;SDS011;46580;52.114;11.674;2023-04-24T08:45:37;2.30;;;0.67;;
60730;SDS011;46580;52.114;11.674;2023-04-24T08:48:03;0.77;;;0.40;;
60730;SDS011;46580;52.114;11.674;2023-04-24T08:50:29;0.47;;;0.37;;
60730;SDS011;46580;52.114;11.674;2023-04-24T08:52:55;0.83;;;0.63;;
60730;SDS011;46580;52.114;11.674;2023-04-24T08:55:21;1.93;;;0.70;;
60730;SDS011;46580;52.114;11.674;2023-04-24T08:57:50;1.97;;;0.80;;
60730;SDS011;46580;52.114;11.674;2023-04-24T09:00:18;3.60;;;0.60;;
60730;SDS011;46580;52.114;11.674;2023-04-24T09:02:48;1.03;;;0.40;;
60730;SDS011;46580;52.114;11.674;2023-04-24T09:05:16;2.73;;;0.60;;
60730;SDS011;46580;52.114;11.674;2023-04-24T09:07:43;1.13;;;0.60;;
60730;SDS011;46580;52.114;11.674;2023-04-24T09:10:12;2.73;;;0.47;;
60730;SDS011;46580;52.114;11.674;2023-04-24T09:12:38;0.70;;;0.60;;
60730;SDS011;46580;52.114;11.674;2023-04-24T09:15:04;0.67;;;0.30;;
60730;SDS011;46580;52.114;11.674;2023-04-24T09:17:33;3.17;;;0.47;;
60730;SDS011;46580;52.114;11.674;2023-04-24T09:19:59;1.10;;;0.60;;
60730;SDS011;46580;52.114;11.674;2023-04-24T09:22:24;1.67;;;0.60;;
60730;SDS011;46580;52.114;11.674;2023-04-24T09:24:59;2.63;;;0.60;;
60730;SDS011;46580;52.114;11.674;2023-04-24T09:27:28;0.70;;;0.40;;
60730;SDS011;46580;52.114;11.674;2023-04-24T09:29:56;0.80;;;0.53;;
60730;SDS011;46580;52.114;11.674;2023-04-24T09:32:22;1.33;;;0.50;;
60730;SDS011;46580;52.114;11.674;2023-04-24T09:35:04;4.93;;;0.70;;
60730;SDS011;46580;52.114;11.674;2023-04-24T09:40:10;3.13;;;0.70;;
60730;SDS011;46580;52.114;11.674;2023-04-24T09:42:37;2.23;;;0.40;;
60730;SDS011;46580;52.114;11.674;2023-04-24T09:45:03;2.00;;;0.37;;
60730;SDS011;46580;52.114;11.674;2023-04-24T09:47:37;1.60;;;0.53;;
60730;SDS011;46580;52.114;11.674;2023-04-24T09:50:10;1.30;;;1.10;;
60730;SDS011;46580;52.114;11.674;2023-04-24T09:52:39;0.57;;;0.57;;
60730;SDS011;46580;52.114;11.674;2023-04-24T09:55:10;0.90;;;0.60;;
60730;SDS011;46580;52.114;11.674;2023-04-24T09:57:40;2.57;;;0.97;;
60730;SDS011;46580;52.114;11.674;2023-04-24T10:00:12;1.70;;;1.00;;
60730;SDS011;46580;52.114;11.674;2023-04-24T10:02:38;2.47;;;0.90;;
60730;SDS011;46580;52.114;11.674;2023-04-24T10:05:03;1.90;;;1.10;;
60730;SDS011;46580;52.114;11.674;2023-04-24T10:07:32;1.73;;;1.10;;
60730;SDS011;46580;52.114;11.674;2023-04-24T10:09:58;2.20;;;0.80;;
60730;SDS011;46580;52.114;11.674;2023-04-24T10:12:23;2.77;;;1.10;;
60730;SDS011;46580;52.114;11.674;2023-04-24T10:14:50;1.30;;;0.93;;
60730;SDS011;46580;52.114;11.674;2023-04-24T10:17:15;1.53;;;1.10;;
60730;SDS011;46580;52.114;11.674;2023-04-24T10:19:41;1.03;;;0.90;;
60730;SDS011;46580;52.114;11.674;2023-04-24T10:22:08;0.70;;;0.70;;
60730;SDS011;46580;52.114;11.674;2023-04-24T10:24:33;1.60;;;1.00;;
60730;SDS011;46580;52.114;11.674;2023-04-24T10:27:01;1.37;;;1.07;;
60730;SDS011;46580;52.114;11.674;2023-04-24T10:29:27;1.10;;;0.90;;
60730;SDS011;46580;52.114;11.674;2023-04-24T10:31:55;1.70;;;1.10;;
60730;SDS011;46580;52.114;11.674;2023-04-24T10:34:20;3.13;;;0.90;;
60730;SDS011;46580;52.114;11.674;2023-04-24T10:36:48;1.63;;;1.00;;
60730;SDS011;46580;52.114;11.674;2023-04-24T10:39:16;1.73;;;1.10;;
60730;SDS011;46580;52.114;11.674;2023-04-24T10:41:43;1.13;;;1.03;;
60730;SDS011;46580;52.114;11.674;2023-04-24T10:44:13;1.93;;;0.87;;
60730;SDS011;46580;52.114;11.674;2023-04-24T10:46:44;1.30;;;0.90;;
60730;SDS011;46580;52.114;11.674;2023-04-24T10:49:10;1.67;;;0.93;;
60730;SDS011;46580;52.114;11.674;2023-04-24T10:51:46;3.77;;;0.80;;
60730;SDS011;46580;52.114;11.674;2023-04-24T10:59:43;0.90;;;0.80;;
60730;SDS011;46580;52.114;11.674;2023-04-24T11:02:08;4.07;;;1.00;;
60730;SDS011;46580;52.114;11.674;2023-04-24T11:04:34;1.20;;;0.70;;
60730;SDS011;46580;52.114;11.674;2023-04-24T11:07:03;1.00;;;0.50;;
60730;SDS011;46580;52.114;11.674;2023-04-24T11:09:30;0.80;;;0.63;;
60730;SDS011;46580;52.114;11.674;2023-04-24T11:12:09;1.20;;;0.80;;
60730;SDS011;46580;52.114;11.674;2023-04-24T11:17:57;0.70;;;0.60;;
60730;SDS011;46580;52.114;11.674;2023-04-24T11:20:22;1.23;;;0.60;;
60730;SDS011;46580;52.114;11.674;2023-04-24T11:22:48;0.73;;;0.70;;
60730;SDS011;46580;52.114;11.674;2023-04-24T11:25:17;0.97;;;0.80;;
60730;SDS011;46580;52.114;11.674;2023-04-24T11:27:43;2.40;;;1.10;;
60730;SDS011;46580;52.114;11.674;2023-04-24T11:30:10;1.30;;;1.00;;
60730;SDS011;46580;52.114;11.674;2023-04-24T11:32:40;2.73;;;0.63;;
60730;SDS011;46580;52.114;11.674;2023-04-24T11:35:16;2.70;;;1.00;;
60730;SDS011;46580;52.114;11.674;2023-04-24T11:37:42;2.40;;;0.87;;
60730;SDS011;46580;52.114;11.674;2023-04-24T11:40:15;2.47;;;0.80;;
60730;SDS011;46580;52.114;11.674;2023-04-24T11:42:42;1.47;;;0.97;;
60730;SDS011;46580;52.114;11.674;2023-04-24T11:45:10;1.90;;;0.80;;
60730;SDS011;46580;52.114;11.674;2023-04-24T11:47:37;1.37;;;0.90;;
60730;SDS011;46580;52.114;11.674;2023-04-24T11:50:03;2.67;;;1.10;;
60730;SDS011;46580;52.114;11.674;2023-04-24T11:52:30;2.03;;;1.17;;
60730;SDS011;46580;52.114;11.674;2023-04-24T11:54:56;1.10;;;0.90;;
60730;SDS011;46580;52.114;11.674;2023-04-24T11:57:22;3.60;;;0.90;;
60730;SDS011;46580;52.114;11.674;2023-04-24T11:59:51;2.33;;;0.90;;
60730;SDS011;46580;52.114;11.674;2023-04-24T12:02:26;2.77;;;1.03;;
60730;SDS011;46580;52.114;11.674;2023-04-24T12:04:55;2.10;;;0.97;;
60730;SDS011;46580;52.114;11.674;2023-04-24T12:07:21;3.63;;;1.00;;
60730;SDS011;46580;52.114;11.674;2023-04-24T12:09:49;1.30;;;1.00;;
60730;SDS011;46580;52.114;11.674;2023-04-24T12:12:23;2.33;;;0.90;;
60730;SDS011;46580;52.114;11.674;2023-04-24T12:14:52;1.23;;;0.83;;
60730;SDS011;46580;52.114;11.674;2023-04-24T12:17:23;1.60;;;0.87;;
60730;SDS011;46580;52.114;11.674;2023-04-24T12:19:51;3.20;;;0.73;;
60730;SDS011;46580;52.114;11.674;2023-04-24T12:22:16;1.07;;;0.87;;
60730;SDS011;46580;52.114;11.674;2023-04-24T12:24:58;0.83;;;0.70;;
60730;SDS011;46580;52.114;11.674;2023-04-24T12:27:25;0.83;;;0.70;;
60730;SDS011;46580;52.114;11.674;2023-04-24T12:29:53;1.27;;;0.90;;
60730;SDS011;46580;52.114;11.674;2023-04-24T12:32:20;1.07;;;0.97;;
60730;SDS011;46580;52.114;11.674;2023-04-24T12:34:46;1.30;;;0.90;;
60730;SDS011;46580;52.114;11.674;2023-04-24T12:37:11;6.33;;;1.03;;
60730;SDS011;46580;52.114;11.674;2023-04-24T12:39:37;1.57;;;0.93;;
60730;SDS011;46580;52.114;11.674;2023-04-24T12:42:02;1.13;;;0.80;;
60730;SDS011;46580;52.114;11.674;2023-04-24T12:47:00;1.17;;;0.73;;
60730;SDS011;46580;52.114;11.674;2023-04-24T12:49:26;1.10;;;0.80;;
60730;SDS011;46580;52.114;11.674;2023-04-24T12:51:51;2.57;;;0.93;;
60730;SDS011;46580;52.114;11.674;2023-04-24T12:54:17;0.90;;;0.70;;
60730;SDS011;46580;52.114;11.674;2023-04-24T12:56:42;1.43;;;0.60;;
60730;SDS011;46580;52.114;11.674;2023-04-24T12:59:07;1.80;;;0.87;;
60730;SDS011;46580;52.114;11.674;2023-04-24T13:01:33;0.80;;;0.70;;
60730;SDS011;46580;52.114;11.674;2023-04-24T13:03:58;2.77;;;0.90;;
60730;SDS011;46580;52.114;11.674;2023-04-24T13:06:23;2.30;;;0.60;;
60730;SDS011;46580;52.114;11.674;2023-04-24T13:08:49;2.23;;;0.77;;
60730;SDS011;46580;52.114;11.674;2023-04-24T13:11:14;1.20;;;0.87;;
60730;SDS011;46580;52.114;11.674;2023-04-24T13:13:39;0.90;;;0.70;;
60730;SDS011;46580;52.114;11.674;2023-04-24T13:16:05;3.30;;;0.83;;
60730;SDS011;46580;52.114;11.674;2023-04-24T13:18:30;2.10;;;0.70;;
60730;SDS011;46580;52.114;11.674;2023-04-24T13:20:55;2.17;;;1.10;;
60730;SDS011;46580;52.114;11.674;2023-04-24T13:23:21;3.47;;;1.00;;
60730;SDS011;46580;52.114;11.674;2023-04-24T13:25:47;0.93;;;0.80;;
60730;SDS011;46580;52.114;11.674;2023-04-24T13:28:13;0.77;;;0.63;;
60730;SDS011;46580;52.114;11.674;2023-04-24T13:30:38;2.10;;;0.90;;
60730;SDS011;46580;52.114;11.674;2023-04-24T13:33:04;1.00;;;0.60;;
60730;SDS011;46580;52.114;11.674;2023-04-24T13:35:29;0.87;;;0.80;;
60730;SDS011;46580;52.114;11.674;2023-04-24T13:37:57;3.00;;;0.80;;
60730;SDS011;46580;52.114;11.674;2023-04-24T13:40:22;1.03;;;0.60;;
60730;SDS011;46580;52.114;11.674;2023-04-24T13:42:48;3.77;;;0.70;;
60730;SDS011;46580;52.114;11.674;2023-04-24T13:45:13;0.90;;;0.50;;
60730;SDS011;46580;52.114;11.674;2023-04-24T13:47:39;1.73;;;0.77;;
60730;SDS011;46580;52.114;11.674;2023-04-24T13:50:06;1.80;;;0.80;;
60730;SDS011;46580;52.114;11.674;2023-04-24T13:52:33;3.17;;;0.77;;
60730;SDS011;46580;52.114;11.674;2023-04-24T13:54:58;1.37;;;0.73;;
60730;SDS011;46580;52.114;11.674;2023-04-24T13:57:24;0.97;;;0.70;;
60730;SDS011;46580;52.114;11.674;2023-04-24T13:59:49;1.00;;;0.67;;
60730;SDS011;46580;52.114;11.674;2023-04-24T14:02:15;2.67;;;0.90;;
60730;SDS011;46580;52.114;11.674;2023-04-24T14:04:40;1.20;;;1.10;;
60730;SDS011;46580;52.114;11.674;2023-04-24T14:07:05;2.47;;;0.80;;
60730;SDS011;46580;52.114;11.674;2023-04-24T14:09:30;1.37;;;1.00;;
60730;SDS011;46580;52.114;11.674;2023-04-24T14:11:56;2.70;;;1.00;;
60730;SDS011;46580;52.114;11.674;2023-04-24T14:14:21;1.03;;;0.93;;
60730;SDS011;46580;52.114;11.674;2023-04-24T14:16:46;1.37;;;0.93;;
60730;SDS011;46580;52.114;11.674;2023-04-24T14:19:12;1.10;;;0.67;;
60730;SDS011;46580;52.114;11.674;2023-04-24T14:21:37;0.80;;;0.40;;
60730;SDS011;46580;52.114;11.674;2023-04-24T14:24:02;0.83;;;0.50;;
60730;SDS011;46580;52.114;11.674;2023-04-24T14:26:29;0.43;;;0.40;;
60730;SDS011;46580;52.114;11.674;2023-04-24T14:28:54;2.00;;;0.60;;
60730;SDS011;46580;52.114;11.674;2023-04-24T14:31:20;0.70;;;0.70;;
60730;SDS011;46580;52.114;11.674;2023-04-24T14:33:47;0.57;;;0.50;;
60730;SDS011;46580;52.114;11.674;2023-04-24T14:36:12;1.20;;;0.70;;
60730;SDS011;46580;52.114;11.674;2023-04-24T14:38:37;0.40;;;0.40;;
60730;SDS011;46580;52.114;11.674;2023-04-24T14:41:03;0.50;;;0.50;;
60730;SDS011;46580;52.114;11.674;2023-04-24T14:43:34;0.40;;;0.40;;